Time;durP1;ratioP1;P1;durP2;ratioP2;P2;SDS_P1;SDS_P2;PMS_P1;PMS_P2;Temp;Humidity;BMP_temperature;BMP_pressure;BME280_temperature;BME280_humidity;BME280_pressure;Samples;Min_cycle;Max_cycle;Signal;HPM_P1;HPM_P2
2023/02/15 03:02:48;;;;;;;22.70;20.30;;;-1.30;99.90;;;;;;5006317;23;20490;-80
2023/02/15 03:05:18;;;;;;;23.37;20.87;;;-1.40;99.90;;;;;;4959238;28;20573;-80
2023/02/15 03:07:49;;;;;;;24.57;19.63;;;-1.50;99.90;;;;;;4959680;28;20450;-80
2023/02/15 03:10:18;;;;;;;24.33;20.33;;;-1.50;99.90;;;;;;4960138;28;20450;-80
2023/02/15 03:12:45;;;;;;;23.07;20.13;;;-1.50;99.90;;;;;;4938150;29;20462;-80
2023/02/15 03:15:19;;;;;;;24.37;20.47;;;-1.60;99.90;;;;;;4943009;29;20529;-80
2023/02/15 03:17:52;;;;;;;25.67;21.10;;;-1.60;99.90;;;;;;4947388;29;20450;-80
2023/02/15 03:20:25;;;;;;;25.40;22.17;;;-1.60;99.90;;;;;;4942463;28;20530;-80
2023/02/15 03:22:56;;;;;;;24.27;21.70;;;-1.50;99.90;;;;;;4942269;29;20537;-81
2023/02/15 03:25:26;;;;;;;25.67;21.53;;;-1.60;99.90;;;;;;4937569;28;20482;-80
2023/02/15 03:27:59;;;;;;;24.50;21.90;;;-1.50;99.90;;;;;;4941355;29;20445;-81
2023/02/15 03:30:28;;;;;;;21.83;19.50;;;-1.60;99.90;;;;;;4938775;28;20463;-81
2023/02/15 03:32:59;;;;;;;23.23;20.73;;;-1.50;99.90;;;;;;4939577;28;20542;-80
2023/02/15 03:35:29;;;;;;;21.87;19.43;;;-1.60;99.90;;;;;;4957984;29;20490;-81
2023/02/15 03:38:01;;;;;;;24.30;21.70;;;-1.60;99.90;;;;;;4961921;29;20497;-81
2023/02/15 03:43:22;;;;;;;26.97;22.07;;;-1.40;99.90;;;;;;4946685;29;20888;-80
2023/02/15 03:45:55;;;;;;;26.73;22.27;;;-1.50;99.90;;;;;;4949361;28;20490;-81
2023/02/15 03:48:28;;;;;;;24.47;21.87;;;-1.50;99.90;;;;;;4947058;29;20985;-81
2023/02/15 03:53:44;;;;;;;24.13;21.10;;;-1.50;99.90;;;;;;4940420;29;21042;-86
2023/02/15 03:56:10;;;;;;;31.43;23.50;;;-1.50;99.90;;;;;;4946448;29;20458;-79
2023/02/15 04:04:29;;;;;;;27.50;23.07;;;-1.40;99.90;;;;;;4896507;29;20552;-80
2023/02/15 04:06:56;;;;;;;26.57;23.27;;;-1.40;99.90;;;;;;4922749;28;20960;-80
2023/02/15 04:12:07;;;;;;;25.67;22.90;;;-1.40;99.90;;;;;;4941114;29;20468;-79
2023/02/15 04:17:19;;;;;;;25.50;22.67;;;-1.50;99.90;;;;;;4941137;28;20430;-80
2023/02/15 04:25:15;;;;;;;25.17;22.23;;;-1.60;99.90;;;;;;4938350;29;20848;-84
2023/02/15 04:27:44;;;;;;;28.10;22.40;;;-1.70;99.90;;;;;;4945136;28;20510;-83
2023/02/15 04:30:13;;;;;;;26.47;23.63;;;-1.70;99.90;;;;;;4945573;29;20828;-82
2023/02/15 04:32:40;;;;;;;26.47;22.77;;;-1.80;99.90;;;;;;4946904;28;20470;-83
2023/02/15 04:35:11;;;;;;;28.13;23.60;;;-1.80;99.90;;;;;;4945747;29;20459;-81
2023/02/15 04:37:38;;;;;;;25.43;22.63;;;-1.90;99.90;;;;;;4952294;29;20891;-81
2023/02/15 04:40:07;;;;;;;27.00;21.80;;;-1.90;99.90;;;;;;4936621;29;20474;-81
2023/02/15 04:42:37;;;;;;;26.47;22.47;;;-2.00;99.90;;;;;;4933636;29;20926;-81
2023/02/15 04:45:04;;;;;;;25.67;22.87;;;-2.00;99.90;;;;;;4946261;29;20850;-79
2023/02/15 04:47:32;;;;;;;25.47;22.77;;;-1.90;99.90;;;;;;4942291;29;20458;-79
2023/02/15 04:49:58;;;;;;;29.27;23.50;;;-1.90;99.90;;;;;;4946835;29;20462;-80
2023/02/15 04:52:27;;;;;;;26.07;23.23;;;-1.90;99.90;;;;;;4944527;28;20537;-79
2023/02/15 04:54:53;;;;;;;25.93;23.13;;;-1.90;99.90;;;;;;4949161;28;20455;-79
2023/02/15 04:57:20;;;;;;;28.20;23.63;;;-1.90;99.90;;;;;;4945207;29;20515;-79
2023/02/15 04:59:47;;;;;;;26.00;23.27;;;-1.80;99.90;;;;;;4946726;29;21054;-79
2023/02/15 05:02:14;;;;;;;27.90;24.30;;;-1.80;99.90;;;;;;4948491;28;20475;-79
2023/02/15 05:04:40;;;;;;;27.27;23.73;;;-1.80;99.90;;;;;;4949127;28;20498;-80
2023/02/15 05:07:07;;;;;;;30.13;23.37;;;-1.90;99.90;;;;;;4949513;29;20867;-80
2023/02/15 05:09:35;;;;;;;30.03;24.70;;;-1.90;99.90;;;;;;4943457;29;20459;-80
2023/02/15 05:12:02;;;;;;;31.50;24.63;;;-1.90;99.90;;;;;;4944695;28;20483;-79
2023/02/15 05:14:29;;;;;;;29.53;24.87;;;-1.90;99.90;;;;;;4955110;28;21046;-80
2023/02/15 05:16:56;;;;;;;31.03;25.37;;;-2.00;99.90;;;;;;4945808;29;20514;-79
2023/02/15 05:19:24;;;;;;;27.00;23.03;;;-2.00;99.90;;;;;;4949077;29;20451;-79
2023/02/15 05:21:51;;;;;;;27.20;23.30;;;-2.10;99.90;;;;;;4948011;28;20455;-79
2023/02/15 05:29:44;;;;;;;26.97;22.23;;;-2.00;99.90;;;;;;4920756;29;20977;-79
2023/02/15 05:32:13;;;;;;;26.03;23.17;;;-2.00;99.90;;;;;;4949281;28;20477;-79
2023/02/15 05:34:40;;;;;;;27.20;24.40;;;-1.90;99.90;;;;;;4943020;29;20443;-80
2023/02/15 05:37:08;;;;;;;28.00;24.30;;;-1.90;99.90;;;;;;4948758;28;20454;-80
2023/02/15 05:39:35;;;;;;;28.47;23.77;;;-1.90;99.90;;;;;;4944651;29;20453;-80
2023/02/15 05:42:03;;;;;;;25.40;22.87;;;-2.00;99.90;;;;;;4941945;28;20600;-79
2023/02/15 05:44:30;;;;;;;28.07;24.23;;;-2.00;99.90;;;;;;4947517;29;20442;-79
2023/02/15 05:46:57;;;;;;;33.73;25.10;;;-2.00;99.90;;;;;;4947916;28;20962;-79
2023/02/15 05:49:24;;;;;;;27.27;23.97;;;-2.10;99.90;;;;;;4949339;29;20489;-79
2023/02/15 05:51:51;;;;;;;26.60;23.67;;;-2.10;99.90;;;;;;4944792;28;20534;-79
2023/02/15 05:54:18;;;;;;;30.63;23.60;;;-2.10;99.90;;;;;;4949075;29;20975;-79
2023/02/15 05:56:44;;;;;;;26.00;23.23;;;-2.10;99.90;;;;;;4951141;28;20576;-78
2023/02/15 05:59:13;;;;;;;27.97;22.70;;;-2.10;99.90;;;;;;4945430;28;20451;-79
2023/02/15 06:01:40;;;;;;;25.50;22.53;;;-2.10;99.90;;;;;;4947642;28;20470;-78
2023/02/15 06:04:06;;;;;;;27.13;22.50;;;-2.10;99.90;;;;;;4949317;29;20527;-78
2023/02/15 06:06:34;;;;;;;23.87;21.47;;;-2.00;99.90;;;;;;4940631;29;20507;-79
2023/02/15 06:09:01;;;;;;;26.10;23.30;;;-2.00;99.90;;;;;;4947841;29;20966;-80
2023/02/15 06:11:27;;;;;;;27.47;24.47;;;-2.00;99.90;;;;;;4948543;28;20574;-79
2023/02/15 06:13:54;;;;;;;28.97;25.87;;;-1.90;99.90;;;;;;4945200;29;20454;-80
2023/02/15 06:16:22;;;;;;;27.93;24.93;;;-2.00;99.90;;;;;;4941347;28;20458;-80
2023/02/15 06:18:49;;;;;;;26.40;23.67;;;-1.90;99.90;;;;;;4948425;28;20520;-80
2023/02/15 06:21:17;;;;;;;27.97;25.10;;;-1.90;99.90;;;;;;4940692;28;20486;-79
2023/02/15 06:23:44;;;;;;;28.27;25.20;;;-1.90;99.90;;;;;;4939748;29;20451;-85
2023/02/15 06:26:11;;;;;;;30.53;25.50;;;-1.80;99.90;;;;;;4935430;29;20482;-80
2023/02/15 06:28:38;;;;;;;27.87;24.93;;;-1.80;99.90;;;;;;4944728;29;20448;-81
2023/02/15 06:31:05;;;;;;;28.17;25.17;;;-1.80;99.90;;;;;;4944136;29;20465;-79
2023/02/15 06:33:34;;;;;;;28.83;25.53;;;-1.80;99.90;;;;;;4939890;29;20491;-79
2023/02/15 06:36:01;;;;;;;31.40;25.37;;;-1.80;99.90;;;;;;4943154;29;20525;-78
2023/02/15 06:38:28;;;;;;;31.27;26.30;;;-1.80;99.90;;;;;;4939161;29;20443;-78
2023/02/15 06:40:55;;;;;;;30.83;25.83;;;-1.70;99.90;;;;;;4946340;29;20500;-79
2023/02/15 06:43:22;;;;;;;32.10;25.87;;;-1.70;99.90;;;;;;4943213;29;20451;-79
2023/02/15 06:45:49;;;;;;;32.97;27.73;;;-1.70;99.90;;;;;;4946585;29;20574;-78
2023/02/15 06:48:16;;;;;;;30.30;25.47;;;-1.70;99.90;;;;;;4947452;29;20549;-79
2023/02/15 06:50:44;;;;;;;31.60;25.37;;;-1.70;99.90;;;;;;4939146;28;20550;-81
2023/02/15 06:53:11;;;;;;;32.60;26.23;;;-1.70;99.90;;;;;;4934621;29;20904;-85
2023/02/15 06:55:38;;;;;;;30.63;25.47;;;-1.60;99.90;;;;;;4944847;29;20450;-83
2023/02/15 06:58:04;;;;;;;29.57;25.40;;;-1.60;99.90;;;;;;4948341;29;20453;-81
2023/02/15 07:00:31;;;;;;;28.40;23.93;;;-1.60;99.90;;;;;;4941966;28;20455;-78
2023/02/15 07:02:59;;;;;;;30.30;25.53;;;-1.70;99.90;;;;;;4940819;29;20459;-84
2023/02/15 07:05:30;;;;;;;32.27;26.47;;;-1.60;99.90;;;;;;4949084;29;20478;-85
2023/02/15 07:07:58;;;;;;;32.53;26.67;;;-1.60;99.90;;;;;;4939845;29;20458;-86
2023/02/15 07:10:26;;;;;;;32.07;26.40;;;-1.60;99.90;;;;;;4949288;28;20438;-85
2023/02/15 07:12:52;;;;;;;27.87;23.50;;;-1.50;99.90;;;;;;4948872;28;20452;-85
2023/02/15 07:15:21;;;;;;;30.70;26.47;;;-1.50;99.90;;;;;;4942410;29;20483;-85
2023/02/15 07:17:48;;;;;;;33.47;25.87;;;-1.40;99.90;;;;;;4949282;28;20455;-85
2023/02/15 07:20:17;;;;;;;28.60;25.50;;;-1.30;99.90;;;;;;4944221;29;20512;-86
2023/02/15 07:22:45;;;;;;;29.67;26.10;;;-1.20;99.90;;;;;;4948979;28;20473;-86
2023/02/15 07:25:13;;;;;;;33.63;26.60;;;-1.20;99.90;;;;;;4945424;28;20447;-86
2023/02/15 07:27:41;;;;;;;29.77;24.97;;;-1.00;99.90;;;;;;4942703;29;20986;-84
2023/02/15 07:30:10;;;;;;;26.67;23.87;;;-0.90;99.90;;;;;;4943601;28;20462;-79
2023/02/15 07:33:22;;;;;;;26.03;23.13;;;-0.70;99.90;;;;;;4943712;29;20648;-79
2023/02/15 07:35:23;;;;;;;26.40;23.57;;;-0.50;99.90;;;;;;4941472;29;20550;-75
2023/02/15 07:37:50;;;;;;;26.30;23.43;;;-0.40;99.90;;;;;;4945811;29;20469;-80
2023/02/15 07:40:18;;;;;;;27.70;24.10;;;-0.40;99.90;;;;;;4937459;29;20468;-80
2023/02/15 07:42:45;;;;;;;27.20;24.00;;;-0.20;99.90;;;;;;4932399;29;20493;-80
2023/02/15 07:45:14;;;;;;;26.63;23.77;;;-0.10;99.90;;;;;;4946542;29;20969;-80
2023/02/15 07:47:41;;;;;;;31.97;24.43;;;0.10;99.90;;;;;;4934823;29;20467;-80
2023/02/15 07:50:08;;;;;;;27.40;24.43;;;0.40;99.90;;;;;;4946245;28;20436;-80
2023/02/15 07:52:35;;;;;;;26.70;23.87;;;0.70;99.90;;;;;;4943251;29;21014;-78
2023/02/15 07:55:02;;;;;;;25.40;22.77;;;1.10;99.90;;;;;;4940884;29;20461;-79
2023/02/15 07:57:30;;;;;;;25.30;22.63;;;1.40;99.90;;;;;;4941472;29;20503;-79
2023/02/15 07:59:57;;;;;;;25.67;23.13;;;1.80;99.90;;;;;;4953504;28;20528;-79
2023/02/15 08:02:24;;;;;;;25.33;22.73;;;2.10;99.90;;;;;;4954872;28;20501;-79
2023/02/15 08:04:51;;;;;;;24.13;21.60;;;2.50;99.90;;;;;;4955069;29;20210;-80
2023/02/15 08:07:18;;;;;;;24.27;21.93;;;3.00;99.90;;;;;;4958079;28;20219;-76
2023/02/15 08:09:44;;;;;;;25.30;22.90;;;3.30;99.90;;;;;;4943468;29;20254;-83
2023/02/15 08:12:11;;;;;;;25.77;23.30;;;3.60;99.90;;;;;;4951394;28;20218;-83
2023/02/15 08:14:39;;;;;;;22.23;20.13;;;4.00;99.90;;;;;;4952309;28;20199;-80
2023/02/15 08:17:06;;;;;;;22.80;20.57;;;4.30;99.90;;;;;;4955211;28;20203;-80
2023/02/15 08:19:34;;;;;;;22.37;20.17;;;4.60;99.90;;;;;;4958323;28;20234;-79
2023/02/15 08:22:03;;;;;;;23.03;20.60;;;5.00;99.90;;;;;;4954503;28;20237;-80
2023/02/15 08:24:32;;;;;;;22.20;20.13;;;5.40;99.90;;;;;;4937788;29;20211;-80
2023/02/15 08:26:59;;;;;;;22.63;20.53;;;5.70;99.90;;;;;;4941167;29;20725;-80
2023/02/15 08:29:27;;;;;;;20.43;18.63;;;6.10;99.90;;;;;;4949452;29;20295;-80
2023/02/15 08:31:58;;;;;;;21.47;19.37;;;6.40;99.90;;;;;;4953222;28;20282;-80
2023/02/15 08:34:25;;;;;;;20.07;18.13;;;6.50;99.90;;;;;;4945110;29;20200;-80
2023/02/15 08:36:52;;;;;;;20.27;18.37;;;6.20;99.90;;;;;;4934688;29;20776;-80
2023/02/15 08:39:18;;;;;;;20.03;18.00;;;6.30;99.90;;;;;;4932694;29;21110;-81
2023/02/15 08:41:47;;;;;;;19.37;17.47;;;6.40;99.90;;;;;;4937666;29;20279;-80
2023/02/15 08:44:14;;;;;;;19.63;17.83;;;6.20;99.90;;;;;;4924273;29;20199;-80
2023/02/15 08:46:43;;;;;;;21.23;18.70;;;6.40;99.90;;;;;;4923157;29;20219;-79
2023/02/15 08:49:14;;;;;;;19.83;18.00;;;6.70;99.90;;;;;;4923256;29;20727;-81
2023/02/15 08:51:41;;;;;;;18.40;16.80;;;6.80;99.90;;;;;;4923210;29;20235;-80
2023/02/15 08:54:10;;;;;;;17.13;15.57;;;7.30;99.90;;;;;;4927515;29;20220;-80
2023/02/15 08:56:38;;;;;;;18.40;16.50;;;7.70;99.90;;;;;;4928078;29;20199;-79
2023/02/15 08:59:06;;;;;;;18.27;16.47;;;8.00;99.90;;;;;;4927703;29;20238;-82
2023/02/15 09:01:35;;;;;;;13.20;11.13;;;8.40;99.90;;;;;;4933944;29;20218;-82
2023/02/15 09:04:05;;;;;;;15.90;11.30;;;8.60;99.90;;;;;;4940729;29;20203;-81
2023/02/15 09:06:33;;;;;;;12.13;10.70;;;8.70;99.90;;;;;;4933486;29;20227;-82
2023/02/15 09:09:00;;;;;;;15.73;12.03;;;8.70;99.90;;;;;;4937033;29;20199;-82
2023/02/15 09:11:30;;;;;;;15.30;12.87;;;8.40;99.90;;;;;;4939014;29;20230;-82
2023/02/15 09:13:58;;;;;;;18.53;14.03;;;8.30;99.90;;;;;;4939592;29;20637;-81
2023/02/15 09:16:28;;;;;;;19.13;14.50;;;8.00;99.90;;;;;;4940250;29;20644;-79
2023/02/15 09:18:57;;;;;;;25.10;17.80;;;7.90;99.90;;;;;;4924121;29;20268;-79
2023/02/15 09:21:25;;;;;;;26.70;19.63;;;8.10;99.90;;;;;;4926197;29;20798;-80
2023/02/15 09:23:57;;;;;;;33.47;21.20;;;8.20;99.90;;;;;;4924818;29;20682;-80
2023/02/15 09:26:25;;;;;;;26.10;19.97;;;8.70;99.90;;;;;;4922191;29;20646;-80
2023/02/15 09:28:55;;;;;;;27.90;24.97;;;8.80;99.90;;;;;;4926311;29;20228;-79
2023/02/15 09:31:24;;;;;;;20.23;15.73;;;9.10;99.90;;;;;;4935349;29;21210;-80
2023/02/15 09:33:51;;;;;;;25.57;23.23;;;9.10;99.90;;;;;;4930131;29;20253;-80
2023/02/15 09:36:23;;;;;;;23.70;21.50;;;9.20;99.90;;;;;;4931305;29;20255;-79
2023/02/15 09:38:56;;;;;;;25.17;22.53;;;9.20;99.90;;;;;;4925906;29;20745;-80
2023/02/15 09:41:51;;;;;;;24.67;22.07;;;9.20;99.90;;;;;;4942738;28;20242;-80
2023/02/15 09:44:27;;;;;;;22.10;20.10;;;9.30;99.90;;;;;;4928613;29;20212;-80
2023/02/15 09:47:11;;;;;;;22.67;20.47;;;9.40;99.90;;;;;;4926082;29;20316;-79
2023/02/15 09:49:46;;;;;;;22.40;20.27;;;9.20;99.90;;;;;;4924987;29;20269;-79
2023/02/15 09:52:25;;;;;;;21.10;19.17;;;9.30;99.90;;;;;;4926015;29;20223;-80
2023/02/15 09:55:09;;;;;;;20.47;18.57;;;9.30;99.90;;;;;;4925934;29;20263;-79
2023/02/15 09:57:44;;;;;;;18.47;16.67;;;9.20;99.90;;;;;;4924606;29;20205;-80
2023/02/15 10:00:22;;;;;;;20.17;16.87;;;8.80;99.90;;;;;;4923071;29;20199;-80
2023/02/15 10:03:14;;;;;;;17.70;15.83;;;8.30;99.90;;;;;;4922034;29;20207;-80
2023/02/15 10:05:54;;;;;;;19.03;16.90;;;8.40;99.90;;;;;;4933590;29;20199;-81
2023/02/15 10:08:41;;;;;;;20.20;18.23;;;8.50;99.90;;;;;;4940299;29;20203;-77
2023/02/15 10:14:18;;;;;;;20.43;18.40;;;8.40;99.90;;;;;;4933479;29;20581;-80
2023/02/15 10:16:55;;;;;;;18.57;16.87;;;8.30;99.90;;;;;;4932741;29;20712;-80
2023/02/15 10:19:33;;;;;;;18.73;17.03;;;8.40;99.90;;;;;;4942467;29;20210;-78
2023/02/15 10:22:11;;;;;;;18.77;17.07;;;8.40;99.90;;;;;;4937760;29;20259;-78
2023/02/15 10:24:56;;;;;;;18.57;17.07;;;8.30;99.90;;;;;;4937914;29;20207;-78
2023/02/15 10:27:24;;;;;;;17.67;16.23;;;8.40;99.90;;;;;;4940270;29;20233;-79
2023/02/15 10:30:06;;;;;;;18.80;17.10;;;8.50;99.90;;;;;;4939166;29;20227;-79
2023/02/15 10:32:39;;;;;;;18.07;16.37;;;8.50;99.90;;;;;;4938698;29;20234;-81
2023/02/15 10:35:14;;;;;;;17.63;16.07;;;8.60;99.90;;;;;;4938377;29;20195;-82
2023/02/15 10:37:54;;;;;;;18.10;16.43;;;8.60;99.90;;;;;;4936796;29;20530;-82
2023/02/15 10:40:30;;;;;;;18.50;16.67;;;8.50;99.90;;;;;;4937790;29;20210;-78
2023/02/15 10:43:15;;;;;;;18.10;16.40;;;8.50;99.90;;;;;;4941282;29;20207;-77
2023/02/15 10:45:51;;;;;;;18.03;16.43;;;8.50;99.90;;;;;;4934385;29;20202;-78
2023/02/15 10:48:48;;;;;;;17.53;15.93;;;8.60;99.90;;;;;;4945757;28;20228;-77
2023/02/15 10:51:22;;;;;;;18.23;16.63;;;8.60;99.90;;;;;;4934895;28;20227;-77
2023/02/15 10:54:10;;;;;;;21.17;19.17;;;8.60;99.90;;;;;;4944726;29;20250;-77
2023/02/15 10:56:44;;;;;;;19.53;17.83;;;8.60;99.90;;;;;;4937629;29;20198;-77
2023/02/15 10:59:37;;;;;;;19.07;17.37;;;8.50;99.90;;;;;;4942493;29;20198;-77
2023/02/15 11:02:18;;;;;;;20.60;18.57;;;8.40;99.90;;;;;;4942633;28;20786;-76
2023/02/15 11:05:00;;;;;;;19.53;17.70;;;8.30;99.90;;;;;;4944721;28;20202;-77
2023/02/15 11:07:32;;;;;;;19.03;17.23;;;8.40;99.90;;;;;;4944354;29;20269;-77
2023/02/15 11:10:08;;;;;;;18.63;16.87;;;8.40;99.90;;;;;;4943727;28;20199;-77
2023/02/15 11:12:35;;;;;;;18.50;16.70;;;8.40;99.90;;;;;;4934676;29;20293;-77
2023/02/15 11:15:12;;;;;;;19.90;18.00;;;8.50;99.90;;;;;;4938053;28;20209;-80
2023/02/15 11:17:42;;;;;;;20.13;18.23;;;8.50;99.90;;;;;;4937094;29;20215;-81
2023/02/15 11:20:19;;;;;;;18.27;16.53;;;8.50;99.90;;;;;;4944115;29;20254;-82
2023/02/15 11:22:50;;;;;;;18.27;16.47;;;8.60;99.90;;;;;;4944520;28;20279;-84
2023/02/15 11:25:20;;;;;;;16.97;15.37;;;8.60;99.90;;;;;;4933076;29;20196;-82
2023/02/15 11:27:49;;;;;;;17.10;15.60;;;8.60;99.90;;;;;;4939280;29;20269;-82
2023/02/15 11:30:20;;;;;;;17.30;15.50;;;8.70;99.90;;;;;;4939968;29;20556;-82
2023/02/15 11:32:51;;;;;;;17.73;16.10;;;8.70;99.90;;;;;;4944039;28;20227;-82
2023/02/15 11:35:25;;;;;;;17.20;15.70;;;8.70;99.90;;;;;;4937941;29;20620;-82
2023/02/15 11:37:58;;;;;;;17.87;16.17;;;8.80;99.90;;;;;;4940221;29;20812;-81
2023/02/15 11:40:28;;;;;;;17.17;15.53;;;8.80;99.90;;;;;;4946197;28;20202;-81
2023/02/15 11:42:57;;;;;;;17.80;16.10;;;8.90;99.90;;;;;;4941799;28;20257;-83
2023/02/15 11:45:30;;;;;;;14.37;13.20;;;9.00;99.90;;;;;;4949526;29;20206;-87
2023/02/15 11:47:58;;;;;;;16.17;14.67;;;9.10;99.90;;;;;;4954236;28;20635;-84
2023/02/15 11:50:28;;;;;;;15.27;13.83;;;9.20;99.90;;;;;;4951869;28;20211;-84
2023/02/15 11:53:01;;;;;;;14.87;13.57;;;9.20;99.90;;;;;;4954637;28;20211;-85
2023/02/15 11:55:29;;;;;;;14.77;13.57;;;9.30;99.90;;;;;;4947694;28;20257;-84
2023/02/15 11:58:01;;;;;;;16.10;14.60;;;9.30;99.90;;;;;;4954818;28;20203;-85
2023/02/15 12:00:35;;;;;;;16.70;15.20;;;9.40;99.90;;;;;;4942153;28;20683;-85
2023/02/15 12:03:10;;;;;;;16.23;14.83;;;9.50;99.90;;;;;;4952033;29;20213;-81
2023/02/15 12:05:40;;;;;;;15.83;14.47;;;9.50;99.90;;;;;;4947755;29;20253;-82
2023/02/15 12:08:16;;;;;;;16.37;14.97;;;9.60;99.90;;;;;;4948775;28;20230;-80
2023/02/15 12:10:52;;;;;;;15.40;14.10;;;9.70;99.90;;;;;;4951092;28;20265;-80
2023/02/15 12:13:20;;;;;;;17.23;15.70;;;9.70;99.90;;;;;;4951346;28;20581;-85
2023/02/15 12:15:52;;;;;;;16.53;14.93;;;9.90;99.90;;;;;;4947695;28;20237;-86
2023/02/15 12:18:25;;;;;;;17.40;15.70;;;10.00;99.90;;;;;;4947805;28;20376;-85
2023/02/15 12:20:52;;;;;;;18.20;16.50;;;10.10;99.90;;;;;;4948625;28;20230;-86
2023/02/15 12:23:20;;;;;;;16.70;15.20;;;10.30;99.90;;;;;;4946570;28;20245;-85
2023/02/15 12:25:53;;;;;;;16.73;15.20;;;10.30;99.90;;;;;;4950215;29;20207;-84
2023/02/15 12:28:27;;;;;;;15.40;14.10;;;10.40;99.90;;;;;;4948550;28;20223;-82
2023/02/15 12:30:57;;;;;;;15.87;14.40;;;10.40;99.90;;;;;;4943771;28;20257;-82
2023/02/15 12:33:30;;;;;;;16.23;14.73;;;10.40;99.90;;;;;;4954876;28;20265;-83
2023/02/15 12:36:00;;;;;;;15.23;14.00;;;10.50;99.90;;;;;;4942876;28;20215;-80
2023/02/15 12:38:28;;;;;;;14.67;13.40;;;10.50;99.90;;;;;;4938660;29;20209;-79
2023/02/15 12:41:00;;;;;;;14.83;13.37;;;10.60;99.90;;;;;;4933291;29;20218;-83
2023/02/15 12:43:30;;;;;;;13.63;12.60;;;10.60;99.90;;;;;;4944097;29;20206;-81
2023/02/15 12:46:19;;;;;;;14.13;12.93;;;10.60;99.90;;;;;;4948898;28;20232;-81
2023/02/15 12:48:46;;;;;;;14.60;13.30;;;10.70;99.90;;;;;;4954152;28;20270;-81
2023/02/15 12:51:16;;;;;;;13.87;12.77;;;10.80;99.90;;;;;;4950074;28;20656;-81
2023/02/15 12:53:43;;;;;;;13.13;12.13;;;10.90;99.90;;;;;;4945146;28;20211;-80
2023/02/15 12:56:11;;;;;;;13.70;12.60;;;11.00;99.90;;;;;;4935127;29;20210;-81
2023/02/15 12:58:39;;;;;;;14.93;13.63;;;11.00;99.90;;;;;;4944199;29;20226;-81
2023/02/15 13:01:16;;;;;;;13.77;12.67;;;11.10;99.90;;;;;;4950516;28;20241;-82
2023/02/15 13:03:58;;;;;;;13.53;12.43;;;11.20;99.90;;;;;;4940927;29;20211;-83
2023/02/15 13:06:26;;;;;;;13.30;12.20;;;11.30;99.90;;;;;;4941647;29;20228;-82
2023/02/15 13:08:55;;;;;;;13.37;12.37;;;11.30;99.90;;;;;;4952731;29;20220;-82
2023/02/15 13:11:26;;;;;;;15.33;13.90;;;11.40;99.90;;;;;;4948140;28;20232;-82
2023/02/15 13:13:56;;;;;;;14.53;13.33;;;11.50;99.90;;;;;;4955493;29;20624;-82
2023/02/15 13:16:30;;;;;;;14.13;12.93;;;11.40;99.90;;;;;;4949603;28;20208;-82
2023/02/15 13:18:59;;;;;;;13.90;12.80;;;11.50;99.90;;;;;;4947323;29;20269;-81
2023/02/15 13:21:29;;;;;;;14.80;13.60;;;11.50;99.90;;;;;;4953757;28;20293;-81
2023/02/15 13:24:00;;;;;;;15.00;13.70;;;11.50;99.90;;;;;;4944317;29;20196;-81
2023/02/15 13:26:32;;;;;;;17.07;15.27;;;11.60;99.90;;;;;;4955805;29;20257;-81
2023/02/15 13:29:08;;;;;;;15.53;14.23;;;11.60;99.90;;;;;;4948357;29;20274;-81
2023/02/15 13:31:36;;;;;;;16.10;14.87;;;11.60;99.90;;;;;;4941200;28;20781;-80
2023/02/15 13:34:11;;;;;;;15.67;14.37;;;11.70;99.90;;;;;;4946721;29;20205;-81
2023/02/15 13:36:46;;;;;;;15.87;14.57;;;11.70;99.90;;;;;;4950406;28;20303;-81
2023/02/15 13:39:23;;;;;;;16.43;14.97;;;11.70;99.90;;;;;;4947549;29;20230;-81
2023/02/15 13:41:59;;;;;;;17.60;16.00;;;11.80;99.90;;;;;;4951876;28;20226;-82
2023/02/15 13:45:00;;;;;;;18.30;16.80;;;11.80;99.90;;;;;;4949528;29;20205;-81
2023/02/15 13:47:38;;;;;;;18.20;16.70;;;11.80;99.90;;;;;;4949021;28;20427;-82
2023/02/15 13:50:22;;;;;;;17.60;16.00;;;11.80;99.90;;;;;;4949253;28;20212;-82
2023/02/15 13:52:56;;;;;;;16.20;14.70;;;11.80;99.90;;;;;;4942303;29;20226;-80
2023/02/15 13:55:40;;;;;;;16.53;15.03;;;11.80;99.90;;;;;;4950487;29;20264;-82
2023/02/15 13:58:35;;;;;;;17.40;15.80;;;11.80;99.90;;;;;;4949252;28;20222;-81
2023/02/15 14:01:10;;;;;;;17.03;15.23;;;11.80;99.90;;;;;;4943442;29;20235;-80
2023/02/15 14:04:08;;;;;;;17.73;16.17;;;11.80;99.90;;;;;;4943761;29;20205;-81
2023/02/15 14:06:59;;;;;;;15.90;14.43;;;11.80;99.90;;;;;;4946268;29;20197;-82
2023/02/15 14:09:39;;;;;;;15.93;14.37;;;11.90;99.90;;;;;;4955836;29;20293;-83
2023/02/15 14:12:23;;;;;;;15.50;14.20;;;11.90;99.90;;;;;;4946999;28;20215;-82
2023/02/15 14:15:16;;;;;;;14.80;13.60;;;12.00;99.90;;;;;;4950900;29;20193;-82
2023/02/15 14:17:56;;;;;;;15.00;13.70;;;12.00;99.90;;;;;;4958583;28;20204;-84
2023/02/15 14:20:31;;;;;;;15.90;14.20;;;12.00;99.90;;;;;;4949685;28;20678;-84
2023/02/15 14:23:07;;;;;;;16.00;14.63;;;12.00;99.90;;;;;;4951039;28;20222;-84
2023/02/15 14:25:42;;;;;;;15.73;14.37;;;12.00;99.90;;;;;;4952840;29;20213;-84
2023/02/15 14:28:14;;;;;;;14.47;13.27;;;12.00;99.90;;;;;;4956215;29;20222;-84
2023/02/15 14:30:45;;;;;;;15.50;14.20;;;12.00;99.90;;;;;;4964588;28;20200;-84
2023/02/15 14:33:30;;;;;;;15.63;14.30;;;12.00;99.90;;;;;;4968603;28;20213;-84
2023/02/15 14:36:00;;;;;;;15.57;14.37;;;11.90;99.90;;;;;;4959497;29;20537;-78
2023/02/15 14:38:39;;;;;;;16.07;14.67;;;11.90;99.90;;;;;;4954894;29;20816;-81
2023/02/15 14:41:13;;;;;;;16.03;14.60;;;11.90;99.90;;;;;;4962236;28;20224;-81
2023/02/15 14:43:50;;;;;;;16.93;15.13;;;11.90;99.90;;;;;;4962913;28;20205;-79
2023/02/15 14:46:26;;;;;;;16.37;14.90;;;11.90;99.90;;;;;;4957508;29;20198;-79
2023/02/15 14:48:55;;;;;;;16.00;14.70;;;11.90;99.90;;;;;;4964432;28;20277;-80
2023/02/15 14:52:06;;;;;;;15.03;13.70;;;11.90;99.90;;;;;;4968510;28;20229;-81
2023/02/15 14:54:57;;;;;;;15.23;14.03;;;11.90;99.90;;;;;;4962999;28;20225;-79
2023/02/15 14:57:26;;;;;;;14.90;13.60;;;11.90;99.90;;;;;;4961813;29;20223;-78
2023/02/15 14:59:57;;;;;;;14.97;13.73;;;11.90;99.90;;;;;;4957883;28;20230;-79
2023/02/15 15:02:27;;;;;;;15.47;14.23;;;11.90;99.90;;;;;;4959749;28;20242;-78
2023/02/15 15:05:01;;;;;;;14.90;13.67;;;11.90;99.90;;;;;;4967322;28;20182;-78
2023/02/15 15:07:39;;;;;;;13.70;12.67;;;11.80;99.90;;;;;;4962479;29;20276;-78
2023/02/15 15:10:27;;;;;;;14.37;13.17;;;11.80;99.90;;;;;;4961214;28;20313;-79
2023/02/15 15:12:56;;;;;;;14.73;13.60;;;11.80;99.90;;;;;;4960681;29;20208;-80
2023/02/15 15:15:35;;;;;;;15.33;14.07;;;11.80;99.90;;;;;;4960117;28;20261;-82
2023/02/15 15:18:03;;;;;;;15.10;13.80;;;11.80;99.90;;;;;;4954109;29;20570;-83
2023/02/15 15:20:45;;;;;;;14.30;13.30;;;11.70;99.90;;;;;;4944473;28;20277;-85
2023/02/15 15:23:42;;;;;;;14.50;13.20;;;11.70;99.90;;;;;;4947883;28;20196;-80
2023/02/15 15:26:29;;;;;;;14.20;13.10;;;11.70;99.90;;;;;;4913129;29;20292;-78
2023/02/15 15:29:01;;;;;;;13.30;12.30;;;11.70;99.90;;;;;;4947266;28;20717;-80
2023/02/15 15:31:44;;;;;;;13.50;12.50;;;11.70;99.90;;;;;;4938799;28;20249;-82
2023/02/15 15:34:28;;;;;;;14.03;13.03;;;11.70;99.90;;;;;;4936129;29;20675;-80
2023/02/15 15:37:40;;;;;;;15.67;14.07;;;11.60;99.90;;;;;;4949331;28;20219;-79
2023/02/15 15:40:50;;;;;;;15.07;13.77;;;11.50;99.90;;;;;;4942284;29;20197;-82
2023/02/15 15:43:48;;;;;;;14.63;13.50;;;11.50;99.90;;;;;;4944497;29;20209;-82
2023/02/15 15:46:32;;;;;;;13.97;12.77;;;11.40;99.90;;;;;;4932162;29;20234;-81
2023/02/15 15:49:02;;;;;;;13.07;12.03;;;11.30;99.90;;;;;;4949134;28;20232;-81
2023/02/15 15:51:33;;;;;;;12.33;11.43;;;11.10;99.90;;;;;;4942724;28;20239;-81
2023/02/15 15:54:02;;;;;;;13.00;11.90;;;11.00;99.90;;;;;;4949707;28;20274;-80
2023/02/15 15:56:32;;;;;;;12.47;11.53;;;11.00;99.90;;;;;;4948441;29;20212;-81
2023/02/15 15:59:04;;;;;;;13.53;12.40;;;10.90;99.90;;;;;;4949820;29;20254;-81
2023/02/15 16:01:36;;;;;;;12.87;11.97;;;10.80;99.90;;;;;;4941466;28;20238;-81
2023/02/15 16:04:02;;;;;;;13.33;12.30;;;10.70;99.90;;;;;;4954740;29;20207;-82
2023/02/15 16:06:32;;;;;;;12.73;11.80;;;10.60;99.90;;;;;;4945288;29;20633;-84
2023/02/15 16:09:11;;;;;;;13.43;12.23;;;10.50;99.90;;;;;;4949994;29;20272;-83
2023/02/15 16:11:39;;;;;;;12.23;11.13;;;10.40;99.90;;;;;;4945599;28;20295;-86
2023/02/15 16:14:13;;;;;;;12.20;11.30;;;10.30;99.90;;;;;;4960568;29;20203;-85
2023/02/15 16:16:41;;;;;;;12.47;11.47;;;10.20;99.90;;;;;;4948887;29;20208;-86
2023/02/15 16:19:18;;;;;;;11.90;10.97;;;10.20;99.90;;;;;;4950371;29;20617;-84
2023/02/15 16:21:49;;;;;;;12.77;11.77;;;10.10;99.90;;;;;;4952917;28;20795;-84
2023/02/15 16:24:58;;;;;;;12.17;11.27;;;9.90;99.90;;;;;;4949305;29;20291;-87
2023/02/15 16:27:36;;;;;;;12.50;11.40;;;9.80;99.90;;;;;;4943490;29;20659;-80
2023/02/15 16:30:21;;;;;;;12.40;11.40;;;9.70;99.90;;;;;;4929939;29;20219;-82